Time;durP1;ratioP1;P1;durP2;ratioP2;P2;SDS_P1;SDS_P2;PMS_P1;PMS_P2;Temp;Humidity;BMP_temperature;BMP_pressure;BME280_temperature;BME280_humidity;BME280_pressure;Samples;Min_cycle;Max_cycle;Signal;HPM_P1;HPM_P2
2022/01/02 00:00:42;;;;;;;25.60;13.65;;;256.60;2252.80;;;;;;5054147;28;20408;-75
2022/01/02 00:03:08;;;;;;;29.98;14.57;;;256.60;2252.80;;;;;;5053867;28;20025;-75
2022/01/02 00:05:38;;;;;;;32.00;16.42;;;256.60;2252.80;;;;;;5054105;28;20054;-75
2022/01/02 00:08:06;;;;;;;25.70;15.43;;;256.50;2252.80;;;;;;5053999;28;20078;-75
2022/01/02 00:10:44;;;;;;;26.35;15.15;;;256.50;2252.80;;;;;;5054022;28;20029;-76
2022/01/02 00:13:20;;;;;;;33.53;14.95;;;256.50;2252.80;;;;;;5074050;28;20036;-75
2022/01/02 00:15:47;;;;;;;25.17;13.98;;;256.50;2252.80;;;;;;5073645;28;20033;-75
2022/01/02 00:18:15;;;;;;;30.70;15.43;;;256.50;2252.80;;;;;;5071178;28;20492;-75
2022/01/02 00:20:48;;;;;;;34.83;14.85;;;256.50;2252.80;;;;;;5075743;28;20039;-77
2022/01/02 00:23:20;;;;;;;28.48;13.95;;;256.40;2252.80;;;;;;5075442;28;20081;-74
2022/01/02 00:25:52;;;;;;;32.22;16.52;;;256.50;2252.80;;;;;;5075873;28;20512;-76
2022/01/02 00:28:18;;;;;;;31.15;15.10;;;256.40;2252.80;;;;;;5075530;28;20052;-75
2022/01/02 00:30:45;;;;;;;25.45;13.57;;;256.30;2252.80;;;;;;5093793;28;20402;-74
2022/01/02 00:33:11;;;;;;;24.75;13.32;;;256.10;2252.80;;;;;;5074878;28;20040;-73
2022/01/02 00:35:38;;;;;;;26.20;12.88;;;256.30;2252.80;;;;;;5075286;28;20040;-75
2022/01/02 00:38:13;;;;;;;25.85;12.98;;;256.30;2252.80;;;;;;5075480;28;20051;-74
2022/01/02 00:40:42;;;;;;;26.90;13.10;;;256.20;2252.80;;;;;;5093415;28;20100;-76
2022/01/02 00:43:13;;;;;;;29.63;15.52;;;256.20;2252.80;;;;;;5078034;28;20025;-77
2022/01/02 00:45:45;;;;;;;31.83;14.63;;;256.30;2252.80;;;;;;5089098;28;20031;-75
2022/01/02 00:48:29;;;;;;;31.52;15.77;;;256.30;2252.80;;;;;;5066187;28;20028;-75
2022/01/02 00:51:09;;;;;;;30.35;13.10;;;256.20;2252.80;;;;;;5083836;28;20055;-76
2022/01/02 00:53:36;;;;;;;27.48;13.77;;;256.20;2252.80;;;;;;5081561;28;20065;-75
2022/01/02 00:56:04;;;;;;;27.45;14.02;;;256.10;2252.80;;;;;;5062817;28;20028;-75
2022/01/02 00:58:56;;;;;;;24.83;13.65;;;256.00;2252.80;;;;;;5065101;28;20063;-75
2022/01/02 01:01:33;;;;;;;21.42;12.38;;;231.30;2252.80;;;;;;5082857;28;20028;-75
2022/01/02 01:04:00;;;;;;;21.63;12.65;;;231.20;2252.80;;;;;;5080657;28;20020;-76
2022/01/02 01:06:30;;;;;;;20.73;12.32;;;231.30;2252.80;;;;;;5080924;28;20024;-75
2022/01/02 01:09:00;;;;;;;21.60;12.23;;;256.00;2252.80;;;;;;5062579;28;20085;-75
2022/01/02 01:11:28;;;;;;;22.00;12.25;;;231.30;2252.80;;;;;;5066333;28;20024;-75
2022/01/02 01:13:55;;;;;;;23.45;12.70;;;231.30;2252.80;;;;;;5081519;28;20540;-76
2022/01/02 01:16:22;;;;;;;19.35;12.10;;;231.30;2252.80;;;;;;5064118;28;20085;-77
2022/01/02 01:18:48;;;;;;;21.08;12.75;;;230.90;2252.80;;;;;;5065514;28;20020;-76
2022/01/02 01:21:14;;;;;;;23.27;13.15;;;231.00;2252.80;;;;;;5080780;28;20028;-75
2022/01/02 01:23:41;;;;;;;24.70;13.00;;;231.10;2252.80;;;;;;5082795;28;20031;-76
2022/01/02 01:26:09;;;;;;;21.60;11.60;;;231.10;2252.80;;;;;;5063069;28;20033;-77
2022/01/02 01:28:34;;;;;;;25.00;14.65;;;231.10;2252.80;;;;;;5063519;28;20045;-75
2022/01/02 01:31:00;;;;;;;24.23;12.73;;;231.20;2252.80;;;;;;5062555;28;20415;-77
2022/01/02 01:33:26;;;;;;;;;;;231.10;2252.80;;;;;;5064945;28;20047;-77
2022/01/02 01:35:52;;;;;;;19.88;12.02;;;231.00;2252.80;;;;;;5081082;28;19916;-76
2022/01/02 01:38:17;;;;;;;;;;;230.90;2252.80;;;;;;5083548;28;20055;-77
2022/01/02 01:41:09;;;;;;;22.45;13.18;;;230.90;2252.80;;;;;;5062795;28;20276;-76
2022/01/02 01:43:52;;;;;;;22.23;12.23;;;230.80;2252.80;;;;;;5080623;28;20024;-76
2022/01/02 01:46:17;;;;;;;25.40;13.68;;;230.90;2252.80;;;;;;5082561;28;20020;-75
2022/01/02 01:48:51;;;;;;;20.13;11.57;;;230.90;2252.80;;;;;;5080725;28;20032;-75
2022/01/02 01:51:17;;;;;;;22.00;11.60;;;230.90;2252.80;;;;;;5062256;28;20044;-75
2022/01/02 01:53:43;;;;;;;19.40;11.27;;;230.90;2252.80;;;;;;5065957;28;20033;-77
2022/01/02 01:56:09;;;;;;;;;;;230.80;2252.80;;;;;;5063747;28;20036;-78
2022/01/02 01:58:34;;;;;;;21.60;12.90;;;230.80;2252.80;;;;;;5082067;28;19904;-76
2022/01/02 02:01:01;;;;;;;;;;;230.90;2252.80;;;;;;5062743;28;20023;-75
2022/01/02 02:03:27;;;;;;;26.17;12.95;;;230.90;2252.80;;;;;;5082088;28;19987;-75
2022/01/02 02:05:52;;;;;;;;;;;230.80;2252.80;;;;;;5082028;28;20100;-76
2022/01/02 02:08:19;;;;;;;24.27;13.13;;;230.90;2252.80;;;;;;5080108;28;20283;-76
2022/01/02 02:10:54;;;;;;;23.55;13.85;;;230.80;2252.80;;;;;;5064282;28;20475;-76
2022/01/02 02:13:20;;;;;;;26.13;14.00;;;230.80;2252.80;;;;;;5082454;28;20097;-75
2022/01/02 02:15:46;;;;;;;21.83;11.02;;;230.90;2252.80;;;;;;5062631;28;20366;-76
2022/01/02 02:18:12;;;;;;;24.52;12.55;;;230.60;2252.80;;;;;;5063283;28;20024;-76
2022/01/02 02:20:38;;;;;;;19.98;12.68;;;230.80;2252.80;;;;;;5082420;28;20078;-75
2022/01/02 02:23:04;;;;;;;;;;;230.70;2252.80;;;;;;5084119;28;20035;-76
2022/01/02 02:25:33;;;;;;;21.95;12.25;;;230.60;2252.80;;;;;;5085854;28;19904;-75
2022/01/02 02:28:00;;;;;;;21.08;11.00;;;230.60;2252.80;;;;;;5086059;28;20076;-75
2022/01/02 02:30:31;;;;;;;19.23;11.77;;;230.50;2252.80;;;;;;5084528;28;20017;-76
2022/01/02 02:32:58;;;;;;;18.50;11.52;;;230.40;2252.80;;;;;;5066843;28;20020;-75
2022/01/02 02:35:25;;;;;;;19.42;11.48;;;230.40;2252.80;;;;;;5086208;28;20442;-77
2022/01/02 02:37:51;;;;;;;23.23;12.13;;;205.70;2252.80;;;;;;5063673;28;20032;-76
2022/01/02 02:40:18;;;;;;;;;;;205.70;2252.80;;;;;;5061966;28;20021;-77
2022/01/02 02:50:56;;;;;;;23.35;11.40;;;205.60;2252.80;;;;;;5021780;28;20455;-76
2022/01/02 02:53:22;;;;;;;;;;;205.60;2252.80;;;;;;5000085;28;20042;-75
2022/01/02 02:55:54;;;;;;;18.00;10.43;;;205.60;2252.80;;;;;;5016092;28;19966;-75
2022/01/02 03:00:59;;;;;;;21.23;11.55;;;205.50;2252.80;;;;;;5023717;28;20474;-76
2022/01/02 03:03:25;;;;;;;20.70;11.77;;;205.50;2252.80;;;;;;5013740;28;20029;-76
2022/01/02 03:05:51;;;;;;;;;;;205.50;2252.80;;;;;;5015202;28;20033;-75
2022/01/02 03:08:17;;;;;;;16.30;10.00;;;205.40;2252.80;;;;;;5006936;28;19935;-75
2022/01/02 03:10:43;;;;;;;;;;;205.50;2252.80;;;;;;5022332;28;20034;-76
2022/01/02 03:13:09;;;;;;;24.77;11.77;;;205.50;2252.80;;;;;;5023290;28;19948;-75
2022/01/02 03:15:34;;;;;;;;;;;205.50;2252.80;;;;;;5006876;28;20045;-76
2022/01/02 03:18:00;;;;;;;18.67;11.35;;;205.50;2252.80;;;;;;5021546;28;19912;-76
2022/01/02 03:20:26;;;;;;;;;;;205.40;2252.80;;;;;;5024279;28;20114;-76
2022/01/02 03:22:51;;;;;;;20.65;11.00;;;205.60;2252.80;;;;;;5022500;28;20342;-77
2022/01/02 03:25:17;;;;;;;;;;;205.60;2252.80;;;;;;5051917;28;20538;-76
2022/01/02 03:27:44;;;;;;;25.35;13.25;;;205.70;2252.80;;;;;;5080097;28;19970;-75
2022/01/02 03:30:12;;;;;;;22.83;12.90;;;205.70;2252.80;;;;;;5077740;28;20067;-77
2022/01/02 03:32:39;;;;;;;24.30;12.07;;;230.40;2252.80;;;;;;5059387;28;20074;-76
2022/01/02 03:35:05;;;;;;;23.13;12.57;;;230.40;2252.80;;;;;;5059929;28;20442;-75
2022/01/02 03:37:33;;;;;;;18.73;11.50;;;230.60;2252.80;;;;;;5061338;28;20037;-75
2022/01/02 03:40:00;;;;;;;24.10;11.88;;;230.60;2252.80;;;;;;5062239;28;20039;-77
2022/01/02 03:42:26;;;;;;;22.20;12.80;;;230.60;2252.80;;;;;;5077703;28;20017;-76
2022/01/02 03:44:52;;;;;;;;;;;230.70;2252.80;;;;;;5083579;28;20275;-76
2022/01/02 03:47:18;;;;;;;18.02;10.85;;;230.80;2252.80;;;;;;5064360;28;19908;-75
2022/01/02 03:49:46;;;;;;;;;;;230.60;2252.80;;;;;;5059720;28;20035;-76
2022/01/02 03:52:12;;;;;;;23.88;11.80;;;230.80;2252.80;;;;;;5060150;28;20014;-77
2022/01/02 03:54:38;;;;;;;;;;;230.80;2252.80;;;;;;5079921;28;20039;-76
2022/01/02 03:57:04;;;;;;;24.35;11.60;;;230.90;2252.80;;;;;;5077873;28;19921;-76
2022/01/02 03:59:29;;;;;;;;;;;230.90;2252.80;;;;;;5059218;28;20393;-75
2022/01/02 04:01:55;;;;;;;24.10;11.95;;;231.00;2252.80;;;;;;5059533;28;19957;-75
2022/01/02 04:04:20;;;;;;;;;;;231.10;2252.80;;;;;;5078395;28;20020;-75
2022/01/02 04:06:46;;;;;;;19.38;10.95;;;231.10;2252.80;;;;;;5066684;28;20004;-77
2022/01/02 04:09:12;;;;;;;;;;;231.10;2252.80;;;;;;5077536;28;20523;-76
2022/01/02 04:11:37;;;;;;;17.88;10.45;;;231.10;2252.80;;;;;;5077008;28;20009;-76
2022/01/02 04:14:03;;;;;;;;;;;231.20;2252.80;;;;;;5078316;28;20021;-75
2022/01/02 04:16:29;;;;;;;21.67;10.38;;;231.20;2252.80;;;;;;5064206;28;19912;-76
2022/01/02 04:18:54;;;;;;;20.25;10.02;;;231.20;2252.80;;;;;;5066128;28;20027;-75
2022/01/02 04:21:20;;;;;;;;;;;231.10;2252.80;;;;;;5064003;28;20032;-75
2022/01/02 04:23:46;;;;;;;17.35;10.32;;;231.10;2252.80;;;;;;5076992;28;19944;-76
2022/01/02 04:26:11;;;;;;;;;;;231.20;2252.80;;;;;;5078133;28;20012;-75
2022/01/02 04:28:37;;;;;;;19.67;10.00;;;231.20;2252.80;;;;;;5078529;28;19917;-75
2022/01/02 04:31:02;;;;;;;;;;;231.10;2252.80;;;;;;5065152;28;20031;-76
2022/01/02 04:33:28;;;;;;;16.70;9.35;;;231.20;2252.80;;;;;;5058644;28;19912;-77
2022/01/02 04:35:54;;;;;;;;;;;231.20;2252.80;;;;;;5077514;28;20064;-77
2022/01/02 04:38:20;;;;;;;16.88;9.50;;;231.30;2252.80;;;;;;5058858;28;20326;-76
2022/01/02 04:40:47;;;;;;;;;;;231.20;2252.80;;;;;;5079957;28;20024;-75
2022/01/02 04:43:13;;;;;;;17.42;10.30;;;231.10;2252.80;;;;;;5076798;28;20314;-77
2022/01/02 04:45:39;;;;;;;;;;;231.10;2252.80;;;;;;5058680;28;20042;-76
2022/01/02 04:48:04;;;;;;;15.73;9.57;;;231.10;2252.80;;;;;;5077208;28;19912;-76
2022/01/02 04:50:30;;;;;;;;;;;231.10;2252.80;;;;;;5064605;28;20464;-75
2022/01/02 04:52:56;;;;;;;19.33;10.10;;;231.10;2252.80;;;;;;5064697;28;19939;-77
2022/01/02 04:55:21;;;;;;;;;;;231.10;2252.80;;;;;;5065719;28;20041;-75
2022/01/02 04:57:47;;;;;;;17.05;9.90;;;231.10;2252.80;;;;;;5063488;28;19915;-75
2022/01/02 05:00:13;;;;;;;;;;;231.10;2252.80;;;;;;5065611;28;20036;-75
2022/01/02 05:02:39;;;;;;;16.90;9.75;;;231.20;2252.80;;;;;;5078308;28;19911;-75
2022/01/02 05:05:04;;;;;;;;;;;231.10;2252.80;;;;;;5063319;28;20032;-75
2022/01/02 05:07:30;;;;;;;20.00;10.38;;;231.10;2252.80;;;;;;5051300;28;19920;-77
2022/01/02 05:09:56;;;;;;;;;;;231.10;2252.80;;;;;;5075211;28;20047;-76
2022/01/02 05:12:22;;;;;;;22.88;13.27;;;231.10;2252.80;;;;;;5062936;28;19904;-75
2022/01/02 05:14:48;;;;;;;17.58;10.45;;;230.90;2252.80;;;;;;5058150;28;20099;-74
2022/01/02 05:17:14;;;;;;;18.30;11.05;;;230.80;2252.80;;;;;;5059374;28;20120;-77
2022/01/02 05:19:39;;;;;;;;;;;230.60;2252.80;;;;;;5064593;28;20392;-77
2022/01/02 05:22:05;;;;;;;19.48;10.38;;;230.60;2252.80;;;;;;5077444;28;19904;-76
2022/01/02 05:24:30;;;;;;;;;;;230.50;2252.80;;;;;;5076469;28;20439;-75
2022/01/02 05:26:56;;;;;;;16.75;9.27;;;230.50;2252.80;;;;;;5058203;28;20360;-75
2022/01/02 05:29:22;;;;;;;;;;;230.50;2252.80;;;;;;5078060;28;20027;-75
2022/01/02 05:31:48;;;;;;;21.05;10.43;;;230.50;2252.80;;;;;;5065152;28;19951;-75
2022/01/02 05:34:14;;;;;;;22.33;11.82;;;205.70;2252.80;;;;;;5062459;28;20165;-77
2022/01/02 05:36:40;;;;;;;;;;;230.50;2252.80;;;;;;5057856;28;20060;-76
2022/01/02 05:39:06;;;;;;;20.60;10.73;;;230.50;2252.80;;;;;;5059135;28;19912;-76
2022/01/02 05:41:33;;;;;;;;;;;230.40;2252.80;;;;;;5062278;28;20377;-76
2022/01/02 05:43:59;;;;;;;19.83;8.55;;;230.40;2252.80;;;;;;5064500;28;19904;-76
2022/01/02 05:46:25;;;;;;;17.08;8.77;;;230.50;2252.80;;;;;;5076065;28;20024;-76
2022/01/02 05:48:52;;;;;;;13.77;8.13;;;230.50;2252.80;;;;;;5057972;28;20028;-75
2022/01/02 05:51:18;;;;;;;14.95;8.63;;;230.50;2252.80;;;;;;5059450;28;20020;-75
2022/01/02 05:53:44;;;;;;;14.57;8.88;;;230.60;2252.80;;;;;;5064164;28;20392;-75
2022/01/02 05:56:09;;;;;;;;;;;230.60;2252.80;;;;;;5061857;28;20040;-75
2022/01/02 05:58:35;;;;;;;19.98;10.30;;;230.60;2252.80;;;;;;5057964;28;19905;-75
2022/01/02 06:01:01;;;;;;;;;;;230.50;2252.80;;;;;;5059114;28;20100;-77
2022/01/02 06:03:26;;;;;;;18.25;9.77;;;205.70;2252.80;;;;;;5062840;28;19904;-75
2022/01/02 06:05:52;;;;;;;;;;;205.70;2252.80;;;;;;5079239;28;20020;-74
2022/01/02 06:08:18;;;;;;;19.48;10.27;;;230.40;2252.80;;;;;;5053226;28;19920;-75
2022/01/02 06:10:43;;;;;;;;;;;230.50;2252.80;;;;;;5076602;28;20442;-75
2022/01/02 06:13:09;;;;;;;20.77;9.63;;;230.40;2252.80;;;;;;5061577;28;20344;-75
2022/01/02 06:15:35;;;;;;;;;;;205.70;2252.80;;;;;;5077119;28;20110;-76
2022/01/02 06:18:01;;;;;;;18.48;10.05;;;230.40;2252.80;;;;;;5077784;28;19904;-75
2022/01/02 06:20:26;;;;;;;;;;;230.40;2252.80;;;;;;5076295;28;20468;-75
2022/01/02 06:22:54;;;;;;;18.92;9.77;;;230.50;2252.80;;;;;;5076108;28;19904;-76
2022/01/02 06:25:21;;;;;;;16.42;10.15;;;230.50;2252.80;;;;;;5059353;28;20060;-76
2022/01/02 06:27:47;;;;;;;21.58;9.63;;;205.70;2252.80;;;;;;5064134;28;20044;-77
2022/01/02 06:30:13;;;;;;;19.60;10.63;;;205.50;2252.80;;;;;;5067891;28;20031;-76
2022/01/02 06:32:39;;;;;;;;;;;205.30;2252.80;;;;;;5079970;28;20121;-75
2022/01/02 06:35:05;;;;;;;19.98;11.45;;;205.10;2252.80;;;;;;5062679;28;19934;-75
2022/01/02 06:37:31;;;;;;;28.23;13.60;;;205.10;2252.80;;;;;;5076064;28;20123;-75
2022/01/02 06:39:56;;;;;;;;;;;204.90;2252.80;;;;;;5076425;28;20139;-79
2022/01/02 06:42:22;;;;;;;22.30;13.43;;;180.00;2252.80;;;;;;5077696;28;19914;-75
2022/01/02 06:44:48;;;;;;;;;;;179.90;2252.80;;;;;;5064443;28;20020;-76
2022/01/02 06:47:15;;;;;;;23.00;12.93;;;180.10;2252.80;;;;;;5075791;28;19958;-75
2022/01/02 06:49:41;;;;;;;33.47;13.95;;;204.90;2252.80;;;;;;5057924;28;20284;-76
2022/01/02 06:52:07;;;;;;;29.20;14.60;;;204.90;2252.80;;;;;;5058884;28;20017;-75
2022/01/02 06:54:33;;;;;;;22.98;13.48;;;205.10;2252.80;;;;;;5062392;28;20024;-75
2022/01/02 06:56:58;;;;;;;;;;;205.20;2252.80;;;;;;5064420;28;20039;-75
2022/01/02 06:59:24;;;;;;;26.65;16.05;;;205.30;2252.80;;;;;;5057721;28;19904;-75
2022/01/02 07:01:50;;;;;;;;;;;205.40;2252.80;;;;;;5076187;28;20066;-75
2022/01/02 07:04:15;;;;;;;37.78;20.45;;;205.50;2252.80;;;;;;5059608;28;20348;-75
2022/01/02 07:06:41;;;;;;;;;;;205.60;2252.80;;;;;;5062898;28;20024;-75
2022/01/02 07:09:07;;;;;;;37.55;18.65;;;205.70;2252.80;;;;;;5080746;28;19916;-75
2022/01/02 07:11:32;;;;;;;;;;;230.40;2252.80;;;;;;5079851;28;20060;-75
2022/01/02 07:13:58;;;;;;;32.30;18.17;;;230.40;2252.80;;;;;;5079377;28;20272;-76
2022/01/02 07:16:24;;;;;;;;;;;230.50;2252.80;;;;;;5066819;28;20508;-76
2022/01/02 07:18:50;;;;;;;29.40;16.85;;;230.50;2252.80;;;;;;5067198;28;19905;-77
2022/01/02 07:21:17;;;;;;;;;;;230.50;2252.80;;;;;;5080232;28;20388;-77
2022/01/02 07:23:44;;;;;;;51.88;28.30;;;230.50;2252.80;;;;;;5079254;28;20389;-75
2022/01/02 07:26:09;;;;;;;69.63;33.10;;;230.50;2252.80;;;;;;5080991;28;20049;-75
2022/01/02 07:28:35;;;;;;;;;;;230.60;2252.80;;;;;;5053680;28;20127;-75
2022/01/02 07:31:01;;;;;;;56.90;33.20;;;230.70;2252.80;;;;;;5071271;28;19908;-75
2022/01/02 07:33:27;;;;;;;44.20;26.60;;;230.70;2252.80;;;;;;5055643;28;20167;-75
2022/01/02 07:35:53;;;;;;;;;;;230.70;2252.80;;;;;;5073485;28;20155;-76
2022/01/02 07:38:19;;;;;;;29.80;17.02;;;230.70;2252.80;;;;;;5074060;28;19916;-75
2022/01/02 07:40:45;;;;;;;25.50;13.50;;;230.60;2252.80;;;;;;5074163;28;20491;-75
2022/01/02 07:43:10;;;;;;;;;;;230.70;2252.80;;;;;;5074832;28;20377;-75
2022/01/02 07:45:36;;;;;;;21.70;12.35;;;230.80;2252.80;;;;;;5056025;28;19908;-75
2022/01/02 07:48:02;;;;;;;;;;;230.80;2252.80;;;;;;5056539;28;20021;-75
2022/01/02 07:50:27;;;;;;;17.48;11.45;;;230.90;2252.80;;;;;;5073919;28;19904;-76
2022/01/02 07:52:53;;;;;;;;;;;230.80;2252.80;;;;;;5055894;28;20439;-75
2022/01/02 07:55:19;;;;;;;16.92;9.95;;;230.90;2252.80;;;;;;5073736;28;20390;-75
2022/01/02 07:57:45;;;;;;;18.55;10.85;;;230.90;2252.80;;;;;;5055482;28;20490;-75
2022/01/02 08:00:11;;;;;;;;;;;230.90;2252.80;;;;;;5074105;28;20027;-75
2022/01/02 08:02:37;;;;;;;19.55;10.80;;;230.90;2252.80;;;;;;5073910;28;20091;-76
2022/01/02 08:05:03;;;;;;;;;;;231.00;2252.80;;;;;;5074579;28;20557;-75
2022/01/02 08:07:29;;;;;;;21.60;11.63;;;231.00;2252.80;;;;;;5056026;28;19912;-76
2022/01/02 08:09:54;;;;;;;;;;;231.00;2252.80;;;;;;5074417;28;20077;-74
2022/01/02 08:12:20;;;;;;;36.75;17.55;;;231.00;2252.80;;;;;;5055964;28;19905;-74
2022/01/02 08:14:45;;;;;;;;;;;231.10;2252.80;;;;;;5074846;28;20024;-75
2022/01/02 08:17:11;;;;;;;17.85;9.95;;;231.10;2252.80;;;;;;5073887;28;19912;-76
2022/01/02 08:19:37;;;;;;;;;;;231.20;2252.80;;;;;;5055502;28;20555;-75
2022/01/02 08:22:03;;;;;;;20.25;12.75;;;231.30;2252.80;;;;;;5055978;28;19908;-76
2022/01/02 08:24:28;;;;;;;;;;;256.00;2252.80;;;;;;5056505;28;20025;-76
2022/01/02 08:26:54;;;;;;;27.33;15.30;;;256.00;2252.80;;;;;;5078211;28;19915;-76
2022/01/02 08:29:19;;;;;;;;;;;256.10;2252.80;;;;;;5070433;28;20458;-75
2022/01/02 08:31:45;;;;;;;22.67;12.98;;;256.10;2252.80;;;;;;5065998;28;19908;-76
2022/01/02 08:34:11;;;;;;;;;;;256.10;2252.80;;;;;;5083506;28;20099;-76
2022/01/02 08:36:36;;;;;;;19.83;11.50;;;256.20;2252.80;;;;;;5082533;28;19919;-75
2022/01/02 08:39:02;;;;;;;;;;;256.20;2252.80;;;;;;5066284;28;20024;-76
2022/01/02 08:41:28;;;;;;;26.08;13.07;;;256.30;2252.80;;;;;;5082544;28;19931;-75
2022/01/02 08:43:54;;;;;;;;;;;256.40;2252.80;;;;;;5094123;28;20477;-75
2022/01/02 08:46:19;;;;;;;21.95;12.23;;;256.50;2252.80;;;;;;5093839;28;20005;-75
2022/01/02 08:48:45;;;;;;;;;;;256.50;2252.80;;;;;;5075567;28;20110;-75
2022/01/02 08:51:12;;;;;;;25.95;13.95;;;256.60;2252.80;;;;;;5093776;28;19911;-77
2022/01/02 08:53:39;;;;;;;24.65;14.15;;;256.80;2252.80;;;;;;5087282;28;20021;-77
2022/01/02 08:56:05;;;;;;;21.75;12.20;;;256.80;2252.80;;;;;;5065021;28;20501;-76
2022/01/02 08:58:30;;;;;;;;;;;256.90;2252.80;;;;;;5087039;28;20020;-77
2022/01/02 09:00:57;;;;;;;20.23;12.32;;;281.60;2278.40;;;;;;5093713;28;19908;-77
2022/01/02 09:03:23;;;;;;;26.38;14.85;;;281.60;2278.40;;;;;;5093084;28;20047;-75
2022/01/02 09:05:49;;;;;;;24.30;13.95;;;281.70;2278.40;;;;;;5070517;28;20020;-78
2022/01/02 09:08:15;;;;;;;20.45;13.45;;;281.70;2278.40;;;;;;5088318;28;20468;-76
2022/01/02 09:10:40;;;;;;;;;;;281.70;2278.40;;;;;;5075496;28;20028;-77
2022/01/02 09:13:08;;;;;;;21.77;12.18;;;281.80;2278.40;;;;;;5075023;28;19957;-75
2022/01/02 09:15:34;;;;;;;22.50;13.85;;;281.90;2278.40;;;;;;5092917;28;20048;-74
2022/01/02 09:18:01;;;;;;;18.80;11.85;;;282.00;2278.40;;;;;;5075178;28;20020;-80
2022/01/02 09:20:26;;;;;;;25.45;11.02;;;282.00;2278.40;;;;;;5074872;28;20131;-75
2022/01/02 09:22:52;;;;;;;16.17;9.70;;;282.10;2278.40;;;;;;5093307;28;20048;-77
2022/01/02 09:25:18;;;;;;;;;;;282.10;2278.40;;;;;;5075027;28;20036;-77
2022/01/02 09:27:44;;;;;;;19.13;9.82;;;282.20;2278.40;;;;;;5074819;28;20010;-76
2022/01/02 09:30:11;;;;;;;17.83;10.00;;;282.30;2278.40;;;;;;5061137;28;20032;-76
2022/01/02 09:32:37;;;;;;;17.90;9.98;;;307.30;2304.00;;;;;;5082887;28;20070;-77
2022/01/02 09:35:05;;;;;;;39.10;19.88;;;307.30;2304.00;;;;;;5083523;28;20494;-76
2022/01/02 09:37:31;;;;;;;40.92;22.48;;;307.50;2304.00;;;;;;5083051;28;20032;-75
2022/01/02 09:39:57;;;;;;;37.17;20.00;;;307.60;2304.00;;;;;;5063558;28;20491;-77
2022/01/02 09:42:23;;;;;;;26.92;15.07;;;307.80;2304.00;;;;;;5063945;28;20080;-77
2022/01/02 09:44:49;;;;;;;26.30;11.88;;;307.90;2304.00;;;;;;5083111;28;20103;-76
2022/01/02 09:47:15;;;;;;;;;;;308.10;2304.00;;;;;;5060711;28;20024;-75
2022/01/02 09:49:41;;;;;;;16.83;7.88;;;332.80;2329.60;;;;;;5082183;28;19911;-79
2022/01/02 09:52:07;;;;;;;12.63;7.40;;;332.90;2329.60;;;;;;5065350;28;20020;-78
2022/01/02 09:54:33;;;;;;;15.88;8.50;;;308.10;2304.00;;;;;;5083325;28;20035;-76
2022/01/02 09:57:01;;;;;;;17.23;7.88;;;332.80;2329.60;;;;;;5081766;28;20036;-79
2022/01/02 09:59:26;;;;;;;23.75;10.35;;;308.10;2304.00;;;;;;5080992;28;20020;-76
2022/01/02 10:01:53;;;;;;;16.83;9.32;;;333.10;2329.60;;;;;;5080999;28;20016;-78
2022/01/02 10:04:37;;;;;;;16.83;9.00;;;333.10;2329.60;;;;;;5064203;28;20028;-78
2022/01/02 10:07:25;;;;;;;14.27;8.75;;;333.30;2329.60;;;;;;5061660;28;20032;-78
2022/01/02 10:09:50;;;;;;;16.35;9.82;;;333.50;2329.60;;;;;;5064202;28;20491;-75
2022/01/02 10:12:27;;;;;;;17.30;10.10;;;333.70;2329.60;;;;;;5062985;28;20056;-78
2022/01/02 10:15:11;;;;;;;15.02;9.75;;;358.50;2329.60;;;;;;5083890;28;20510;-81
2022/01/02 10:17:53;;;;;;;15.95;10.18;;;358.80;2329.60;;;;;;5074435;28;20033;-76
2022/01/02 10:20:21;;;;;;;16.90;9.52;;;358.90;2329.60;;;;;;5082939;28;20035;-77
2022/01/02 10:23:20;;;;;;;16.52;9.70;;;359.10;2329.60;;;;;;5080648;28;20020;-77
2022/01/02 10:25:56;;;;;;;18.05;10.30;;;359.20;2329.60;;;;;;4992756;28;20450;-76
2022/01/02 10:28:33;;;;;;;15.05;8.77;;;359.00;2329.60;;;;;;5009884;28;20128;-76
2022/01/02 10:31:25;;;;;;;18.55;8.35;;;359.20;2329.60;;;;;;4992757;28;20069;-77
2022/01/02 10:33:59;;;;;;;15.30;6.93;;;359.30;2329.60;;;;;;5006964;28;20036;-76
2022/01/02 10:36:30;;;;;;;22.13;12.57;;;359.20;2329.60;;;;;;5007491;28;20050;-75
2022/01/02 10:39:14;;;;;;;20.10;12.43;;;359.20;2329.60;;;;;;5009437;28;20482;-75
2022/01/02 10:41:51;;;;;;;23.48;12.65;;;359.10;2329.60;;;;;;5009382;28;20419;-75
2022/01/02 10:44:29;;;;;;;19.08;11.98;;;359.00;2329.60;;;;;;5013441;28;20030;-76
2022/01/02 10:47:18;;;;;;;16.42;11.80;;;359.00;2329.60;;;;;;5013464;28;20099;-76
2022/01/02 10:50:07;;;;;;;35.97;17.27;;;384.00;2329.60;;;;;;5013580;28;20025;-75
2022/01/02 10:52:36;;;;;;;27.23;13.40;;;384.00;2329.60;;;;;;5013563;28;20529;-77
2022/01/02 10:55:07;;;;;;;23.63;13.02;;;384.00;2329.60;;;;;;5013559;28;20379;-76
2022/01/02 10:57:34;;;;;;;22.52;11.75;;;359.20;2329.60;;;;;;5013817;28;20046;-76
2022/01/02 11:00:01;;;;;;;23.63;12.65;;;384.10;2329.60;;;;;;4996547;28;20085;-75
2022/01/02 11:02:27;;;;;;;15.98;9.55;;;384.10;2329.60;;;;;;5053564;28;20040;-76
2022/01/02 11:04:59;;;;;;;13.85;8.35;;;359.20;2329.60;;;;;;5055434;28;20025;-76
2022/01/02 11:07:26;;;;;;;14.70;8.95;;;384.20;2329.60;;;;;;5037127;28;20087;-76
2022/01/02 11:09:55;;;;;;;21.20;10.80;;;384.30;2329.60;;;;;;5055503;28;20033;-76
2022/01/02 11:12:23;;;;;;;38.58;17.90;;;384.40;2329.60;;;;;;5055112;28;20021;-76
2022/01/02 11:14:50;;;;;;;18.42;9.32;;;384.50;2329.60;;;;;;5037576;28;20048;-76
2022/01/02 11:17:16;;;;;;;11.90;7.68;;;384.00;2329.60;;;;;;5054949;28;20029;-76
2022/01/02 11:19:42;;;;;;;19.55;11.23;;;359.30;2329.60;;;;;;5054803;28;20048;-77
2022/01/02 11:22:13;;;;;;;14.25;8.35;;;384.30;2329.60;;;;;;5055140;28;20025;-76
2022/01/02 11:24:49;;;;;;;19.23;9.52;;;384.70;2329.60;;;;;;5037085;28;20128;-77
2022/01/02 11:27:25;;;;;;;20.48;12.23;;;384.20;2329.60;;;;;;5062643;28;20045;-78
2022/01/02 11:29:51;;;;;;;21.70;13.57;;;384.10;2329.60;;;;;;5074904;28;20040;-76
2022/01/02 11:32:24;;;;;;;21.13;12.82;;;384.00;2329.60;;;;;;5074863;28;20025;-76
2022/01/02 11:34:51;;;;;;;29.65;16.27;;;359.30;2329.60;;;;;;5056860;28;20029;-76
2022/01/02 11:37:22;;;;;;;23.70;12.27;;;359.30;2329.60;;;;;;5056725;28;20082;-75
2022/01/02 11:39:57;;;;;;;22.27;13.00;;;384.10;2329.60;;;;;;5056914;28;20027;-75
2022/01/02 11:42:36;;;;;;;24.23;13.45;;;384.00;2329.60;;;;;;5056613;28;20033;-75
2022/01/02 11:45:05;;;;;;;27.23;15.57;;;359.20;2329.60;;;;;;5074606;28;20037;-76
2022/01/02 11:47:42;;;;;;;23.75;14.60;;;359.30;2329.60;;;;;;5074716;28;20016;-75
2022/01/02 11:50:30;;;;;;;25.17;16.00;;;359.10;2329.60;;;;;;5074394;28;20059;-77
2022/01/02 11:53:14;;;;;;;20.55;12.77;;;359.10;2329.60;;;;;;5078554;28;20023;-75
2022/01/02 11:55:41;;;;;;;25.40;14.52;;;359.20;2329.60;;;;;;5089612;28;20035;-76
2022/01/02 11:58:08;;;;;;;25.90;14.55;;;359.20;2329.60;;;;;;5079965;28;20021;-75
2022/01/02 12:00:43;;;;;;;21.10;13.18;;;359.20;2329.60;;;;;;5074079;28;20111;-74
2022/01/02 12:03:40;;;;;;;23.35;14.25;;;359.00;2329.60;;;;;;5056348;28;20020;-75
2022/01/02 12:06:19;;;;;;;26.65;15.90;;;358.80;2329.60;;;;;;5066391;28;20043;-75
2022/01/02 12:08:46;;;;;;;27.80;16.23;;;358.80;2329.60;;;;;;5068150;28;20031;-75
2022/01/02 12:11:30;;;;;;;23.77;14.70;;;358.80;2329.60;;;;;;5058671;28;20115;-75
2022/01/02 12:14:04;;;;;;;22.42;13.93;;;358.80;2329.60;;;;;;5083524;28;20013;-74
2022/01/02 12:16:42;;;;;;;21.20;14.65;;;358.60;2329.60;;;;;;5082565;28;20042;-75
2022/01/02 12:19:08;;;;;;;26.55;15.65;;;358.70;2329.60;;;;;;5082541;28;20039;-74
2022/01/02 12:21:35;;;;;;;28.58;15.63;;;358.70;2329.60;;;;;;5083497;28;20069;-76
2022/01/02 12:24:05;;;;;;;24.73;16.23;;;358.80;2329.60;;;;;;5065987;28;20028;-75
2022/01/02 12:26:35;;;;;;;27.45;13.95;;;358.70;2329.60;;;;;;5082445;28;20026;-76
2022/01/02 12:29:06;;;;;;;23.10;14.43;;;358.60;2329.60;;;;;;5066221;28;20086;-75
2022/01/02 12:31:41;;;;;;;26.33;16.27;;;358.50;2329.60;;;;;;5066443;28;20107;-75
2022/01/02 12:34:14;;;;;;;25.13;14.40;;;358.50;2329.60;;;;;;5081911;28;20012;-76
2022/01/02 12:36:42;;;;;;;37.45;18.02;;;358.60;2329.60;;;;;;5064672;28;20028;-76